Time;durP1;ratioP1;P1;durP2;ratioP2;P2;SDS_P1;SDS_P2;PMS_P1;PMS_P2;Temp;Humidity;BMP_temperature;BMP_pressure;BME280_temperature;BME280_humidity;BME280_pressure;Samples;Min_cycle;Max_cycle;Signal;HPM_P1;HPM_P2
2021/06/29 00:02:02;;;;;;;10.02;9.02;;;589.40;2432.00;;;;;;5094836;28;20375;-81
2021/06/29 00:04:28;;;;;;;14.70;9.18;;;589.40;2432.00;;;;;;5095079;28;20024;-83
2021/06/29 00:06:53;;;;;;;12.15;9.15;;;589.40;2432.00;;;;;;5095341;28;20020;-82
2021/06/29 00:09:19;;;;;;;18.88;13.27;;;589.50;2432.00;;;;;;5111923;28;20467;-84
2021/06/29 00:11:45;;;;;;;22.35;16.52;;;589.30;2432.00;;;;;;5094747;28;20031;-81
2021/06/29 00:14:11;;;;;;;22.38;17.13;;;589.30;2432.00;;;;;;5095191;28;20051;-81
2021/06/29 00:16:37;;;;;;;16.33;12.38;;;589.30;2432.00;;;;;;5095712;28;20035;-81
2021/06/29 00:19:03;;;;;;;19.70;15.85;;;589.40;2432.00;;;;;;5095776;28;20111;-80
2021/06/29 00:21:29;;;;;;;18.40;15.18;;;589.20;2432.00;;;;;;5095433;28;20027;-80
2021/06/29 00:23:54;;;;;;;17.25;12.07;;;589.20;2432.00;;;;;;5095051;28;20049;-79
2021/06/29 00:26:20;;;;;;;16.50;11.70;;;589.40;2432.00;;;;;;5095825;28;20447;-81
2021/06/29 00:28:46;;;;;;;16.50;11.05;;;589.40;2432.00;;;;;;5095110;28;20027;-79
2021/06/29 00:31:12;;;;;;;10.95;9.48;;;589.30;2432.00;;;;;;5094972;28;20051;-79
2021/06/29 00:33:38;;;;;;;16.60;8.98;;;589.20;2432.00;;;;;;5095054;28;20030;-79
2021/06/29 00:36:04;;;;;;;10.40;8.68;;;589.10;2432.00;;;;;;5094692;28;20036;-79
2021/06/29 00:38:30;;;;;;;14.30;10.45;;;589.10;2432.00;;;;;;5094869;28;20055;-80
2021/06/29 00:40:56;;;;;;;12.95;10.48;;;588.90;2432.00;;;;;;5094769;28;20020;-81
2021/06/29 00:43:22;;;;;;;14.30;9.68;;;588.80;2432.00;;;;;;5094610;28;20020;-81
2021/06/29 00:45:48;;;;;;;11.32;10.20;;;588.80;2432.00;;;;;;5094745;28;20031;-83
2021/06/29 00:48:14;;;;;;;12.90;9.77;;;588.80;2432.00;;;;;;5096206;28;20107;-81
2021/06/29 00:50:43;;;;;;;13.13;10.07;;;564.10;2432.00;;;;;;5094547;28;20491;-80
2021/06/29 00:53:14;;;;;;;12.88;9.63;;;564.10;2432.00;;;;;;5094551;28;20116;-80
2021/06/29 00:55:41;;;;;;;14.85;10.27;;;588.90;2432.00;;;;;;5094574;28;20020;-79
2021/06/29 00:58:09;;;;;;;11.45;9.98;;;564.10;2432.00;;;;;;5095422;28;20080;-79
2021/06/29 01:00:36;;;;;;;15.98;9.95;;;588.90;2432.00;;;;;;5094367;28;20028;-80
2021/06/29 01:03:02;;;;;;;15.15;10.23;;;588.80;2432.00;;;;;;5094382;28;20044;-79
2021/06/29 01:05:28;;;;;;;13.45;9.85;;;588.80;2432.00;;;;;;5094169;28;20024;-79
2021/06/29 01:07:54;;;;;;;13.25;9.50;;;588.90;2432.00;;;;;;5094362;28;20072;-79
2021/06/29 01:10:20;;;;;;;18.08;10.20;;;588.90;2432.00;;;;;;5094529;28;20048;-79
2021/06/29 01:12:46;;;;;;;13.60;9.70;;;588.90;2432.00;;;;;;5095598;28;20101;-79
2021/06/29 01:15:12;;;;;;;12.00;9.70;;;588.80;2432.00;;;;;;5095772;28;20035;-79
2021/06/29 01:17:38;;;;;;;11.45;10.35;;;564.10;2432.00;;;;;;5094118;28;20051;-80
2021/06/29 01:20:14;;;;;;;17.27;9.85;;;564.10;2432.00;;;;;;5093886;28;20117;-80
2021/06/29 01:22:41;;;;;;;18.80;10.63;;;564.00;2432.00;;;;;;5095766;28;20089;-78
2021/06/29 01:25:10;;;;;;;14.50;10.07;;;564.10;2432.00;;;;;;5093971;28;20024;-78
2021/06/29 01:32:41;;;;;;;21.88;14.52;;;564.10;2432.00;;;;;;5094846;28;20024;-79
2021/06/29 01:35:08;;;;;;;25.00;19.35;;;564.00;2432.00;;;;;;5093773;28;20111;-80
2021/06/29 01:37:35;;;;;;;18.58;14.63;;;563.90;2432.00;;;;;;5092469;28;20079;-83
2021/06/29 01:40:14;;;;;;;13.48;12.07;;;563.70;2432.00;;;;;;5095324;28;20044;-82
2021/06/29 01:42:41;;;;;;;16.70;12.05;;;563.60;2432.00;;;;;;5094244;28;20114;-81
2021/06/29 01:45:07;;;;;;;14.07;11.57;;;563.70;2432.00;;;;;;5094298;28;20070;-83
2021/06/29 01:50:15;;;;;;;11.63;10.25;;;563.70;2432.00;;;;;;5095455;28;20024;-83
2021/06/29 01:52:41;;;;;;;12.02;10.75;;;563.80;2432.00;;;;;;5094065;28;20073;-83
2021/06/29 01:55:09;;;;;;;11.48;10.27;;;538.50;2406.40;;;;;;5094953;28;20070;-82
2021/06/29 01:57:37;;;;;;;10.90;9.77;;;563.60;2432.00;;;;;;5093957;28;20025;-83
2021/06/29 02:00:07;;;;;;;10.15;9.15;;;563.30;2432.00;;;;;;5093681;28;20020;-84
2021/06/29 02:02:33;;;;;;;13.55;9.55;;;563.60;2432.00;;;;;;5093649;28;20060;-83
2021/06/29 02:04:59;;;;;;;13.50;8.90;;;563.70;2432.00;;;;;;5094039;28;20044;-83
2021/06/29 02:07:25;;;;;;;10.93;9.80;;;563.70;2432.00;;;;;;5093757;28;20086;-82
2021/06/29 02:09:51;;;;;;;12.35;10.38;;;563.40;2432.00;;;;;;5094831;28;20459;-83
2021/06/29 02:12:17;;;;;;;12.98;11.00;;;563.20;2432.00;;;;;;5095102;28;20020;-84
2021/06/29 02:14:43;;;;;;;17.42;13.63;;;563.30;2432.00;;;;;;5093957;28;20024;-83
2021/06/29 02:17:09;;;;;;;14.63;12.95;;;563.20;2432.00;;;;;;5093717;28;20467;-84
2021/06/29 02:19:35;;;;;;;13.55;11.18;;;538.50;2406.40;;;;;;5093654;28;20020;-85
2021/06/29 02:22:01;;;;;;;13.93;11.18;;;538.40;2406.40;;;;;;5093462;28;20034;-84
2021/06/29 02:24:27;;;;;;;11.52;10.13;;;538.40;2406.40;;;;;;5093578;28;20031;-84
2021/06/29 02:26:53;;;;;;;17.65;10.30;;;538.50;2406.40;;;;;;5093702;28;20020;-82
2021/06/29 02:29:18;;;;;;;11.70;10.40;;;538.30;2406.40;;;;;;5093306;28;20047;-84
2021/06/29 02:31:44;;;;;;;12.13;9.73;;;538.50;2406.40;;;;;;5093877;28;20020;-85
2021/06/29 02:34:10;;;;;;;11.55;9.32;;;538.50;2406.40;;;;;;5093420;28;20077;-84
2021/06/29 02:36:36;;;;;;;11.82;10.05;;;538.50;2406.40;;;;;;5093028;28;20535;-85
2021/06/29 02:39:03;;;;;;;11.82;10.45;;;563.20;2432.00;;;;;;5093173;28;20459;-83
2021/06/29 02:41:29;;;;;;;14.45;10.30;;;538.50;2406.40;;;;;;5093781;28;20020;-85
2021/06/29 02:43:55;;;;;;;14.68;9.88;;;538.50;2406.40;;;;;;5093459;28;20066;-84
2021/06/29 02:46:21;;;;;;;15.13;10.75;;;538.20;2406.40;;;;;;5093523;28;20115;-84
2021/06/29 02:48:46;;;;;;;12.80;10.20;;;538.30;2406.40;;;;;;5092972;28;20016;-84
2021/06/29 02:51:13;;;;;;;12.18;10.75;;;538.20;2406.40;;;;;;5093383;28;20024;-82
2021/06/29 02:53:39;;;;;;;10.98;9.10;;;538.10;2406.40;;;;;;5093147;28;20031;-82
2021/06/29 02:56:05;;;;;;;12.48;9.95;;;538.10;2406.40;;;;;;5093100;28;20072;-82
2021/06/29 02:58:31;;;;;;;18.75;10.07;;;538.10;2406.40;;;;;;5092935;28;20024;-84
2021/06/29 03:00:56;;;;;;;13.95;10.30;;;538.10;2406.40;;;;;;5093443;28;20078;-83
2021/06/29 03:03:23;;;;;;;13.95;11.27;;;538.30;2406.40;;;;;;5093002;28;20020;-84
2021/06/29 03:05:49;;;;;;;14.70;10.98;;;538.30;2406.40;;;;;;5093533;28;20020;-82
2021/06/29 03:08:14;;;;;;;15.75;11.02;;;538.20;2406.40;;;;;;5093133;28;20020;-83
2021/06/29 03:10:40;;;;;;;18.70;10.93;;;537.90;2406.40;;;;;;5092873;28;20024;-83
2021/06/29 03:13:06;;;;;;;14.45;10.63;;;537.70;2406.40;;;;;;5093235;28;20516;-83
2021/06/29 03:15:32;;;;;;;18.05;10.63;;;537.90;2406.40;;;;;;5101223;28;20114;-84
2021/06/29 03:17:58;;;;;;;12.77;11.02;;;537.90;2406.40;;;;;;5103038;28;20024;-84
2021/06/29 03:20:24;;;;;;;15.80;11.43;;;537.90;2406.40;;;;;;5103091;28;20051;-84
2021/06/29 03:22:49;;;;;;;12.80;10.65;;;537.90;2406.40;;;;;;5093269;28;20027;-82
2021/06/29 03:25:15;;;;;;;21.50;12.80;;;537.90;2406.40;;;;;;5092625;28;20024;-83
2021/06/29 03:27:41;;;;;;;12.82;11.10;;;537.70;2406.40;;;;;;5092909;28;20488;-83
2021/06/29 03:30:08;;;;;;;16.95;11.10;;;537.80;2406.40;;;;;;5092993;28;20024;-84
2021/06/29 03:32:34;;;;;;;14.13;10.82;;;537.80;2406.40;;;;;;5092738;28;20024;-82
2021/06/29 03:35:02;;;;;;;12.35;9.95;;;537.70;2406.40;;;;;;5093123;28;20012;-83
2021/06/29 03:37:28;;;;;;;14.07;10.80;;;537.90;2406.40;;;;;;5092601;28;20044;-84
2021/06/29 03:39:54;;;;;;;10.95;9.80;;;538.00;2406.40;;;;;;5092659;28;20031;-85
2021/06/29 03:42:20;;;;;;;12.98;9.95;;;538.00;2406.40;;;;;;5092925;28;20132;-85
2021/06/29 03:44:46;;;;;;;17.42;10.45;;;537.90;2406.40;;;;;;5092946;28;20020;-84
2021/06/29 03:47:12;;;;;;;14.65;10.63;;;538.00;2406.40;;;;;;5092833;28;20024;-84
2021/06/29 03:49:38;;;;;;;17.10;11.80;;;538.40;2406.40;;;;;;5092995;28;20464;-85
2021/06/29 03:52:05;;;;;;;15.65;10.68;;;537.80;2406.40;;;;;;5092609;28;20043;-86
2021/06/29 03:54:30;;;;;;;12.35;10.85;;;537.90;2406.40;;;;;;5092649;28;20039;-83
2021/06/29 03:56:56;;;;;;;15.90;10.80;;;538.10;2406.40;;;;;;5092724;28;20028;-83
2021/06/29 03:59:23;;;;;;;16.98;11.35;;;538.10;2406.40;;;;;;5092302;28;20028;-83
2021/06/29 04:01:48;;;;;;;17.60;10.32;;;537.90;2406.40;;;;;;5095662;28;20031;-84
2021/06/29 04:04:14;;;;;;;16.33;11.18;;;537.90;2406.40;;;;;;5095994;28;20012;-85
2021/06/29 04:06:40;;;;;;;16.15;11.38;;;537.80;2406.40;;;;;;5096010;28;20016;-84
2021/06/29 04:09:08;;;;;;;17.42;11.40;;;537.70;2406.40;;;;;;5095873;28;20024;-85
2021/06/29 04:11:34;;;;;;;13.13;10.45;;;537.70;2406.40;;;;;;5095919;28;20020;-85
2021/06/29 04:14:00;;;;;;;15.23;11.68;;;538.50;2406.40;;;;;;5095740;28;20359;-84
2021/06/29 04:16:26;;;;;;;17.80;11.50;;;537.90;2406.40;;;;;;5095848;28;20024;-83
2021/06/29 04:18:52;;;;;;;19.63;12.30;;;537.90;2406.40;;;;;;5095998;28;20031;-84
2021/06/29 04:21:18;;;;;;;19.55;12.05;;;537.90;2406.40;;;;;;5079141;28;20039;-85
2021/06/29 04:23:44;;;;;;;17.10;12.10;;;537.80;2406.40;;;;;;5095773;28;20027;-86
2021/06/29 04:26:18;;;;;;;15.32;12.45;;;537.90;2406.40;;;;;;5095563;28;20201;-83
2021/06/29 04:28:45;;;;;;;15.48;12.18;;;537.90;2406.40;;;;;;5095842;28;20078;-84
2021/06/29 04:31:11;;;;;;;18.50;13.10;;;538.20;2406.40;;;;;;5095420;28;20055;-84
2021/06/29 04:33:37;;;;;;;14.18;11.77;;;563.60;2432.00;;;;;;5095615;28;20051;-84
2021/06/29 04:36:04;;;;;;;16.40;11.55;;;563.30;2432.00;;;;;;5094951;28;20483;-84
2021/06/29 04:38:30;;;;;;;17.02;12.25;;;538.50;2406.40;;;;;;5095590;28;20024;-86
2021/06/29 04:40:55;;;;;;;23.10;13.35;;;538.50;2406.40;;;;;;5095244;28;20103;-83
2021/06/29 04:43:21;;;;;;;20.23;13.32;;;538.50;2406.40;;;;;;5095314;28;20024;-85
2021/06/29 04:45:47;;;;;;;18.77;12.52;;;538.50;2406.40;;;;;;5095307;28;20020;-84
2021/06/29 04:48:13;;;;;;;20.27;12.82;;;563.20;2432.00;;;;;;5095633;28;20088;-85
2021/06/29 04:50:39;;;;;;;18.52;12.73;;;563.30;2432.00;;;;;;5095536;28;20020;-85
2021/06/29 04:53:05;;;;;;;23.55;15.15;;;563.30;2432.00;;;;;;5095175;28;20027;-83
2021/06/29 04:55:33;;;;;;;25.58;15.25;;;563.20;2432.00;;;;;;5095232;28;20027;-84
2021/06/29 04:57:59;;;;;;;21.20;13.55;;;538.50;2406.40;;;;;;5095612;28;20470;-84
2021/06/29 05:00:25;;;;;;;24.58;13.15;;;563.20;2432.00;;;;;;5095113;28;20024;-85
2021/06/29 05:02:51;;;;;;;15.38;12.38;;;563.30;2432.00;;;;;;5095355;28;20024;-83
2021/06/29 05:05:18;;;;;;;21.20;13.18;;;563.20;2432.00;;;;;;5095324;28;20074;-84
2021/06/29 05:07:45;;;;;;;19.95;13.48;;;563.30;2432.00;;;;;;5094906;28;20034;-84
2021/06/29 05:10:11;;;;;;;18.00;11.98;;;563.20;2432.00;;;;;;5095068;28;20024;-83
2021/06/29 05:12:38;;;;;;;21.63;11.05;;;563.30;2432.00;;;;;;5094944;28;20024;-84
2021/06/29 05:15:07;;;;;;;19.50;12.00;;;563.40;2432.00;;;;;;5094981;28;20463;-84
2021/06/29 05:17:33;;;;;;;19.75;12.55;;;563.40;2432.00;;;;;;5094869;28;20081;-83
2021/06/29 05:19:58;;;;;;;16.90;12.20;;;563.90;2432.00;;;;;;5094832;28;20024;-83
2021/06/29 05:22:24;;;;;;;18.95;13.38;;;563.50;2432.00;;;;;;5097534;28;20024;-83
2021/06/29 05:24:50;;;;;;;14.52;12.90;;;563.50;2432.00;;;;;;5098723;28;20030;-83
2021/06/29 05:27:16;;;;;;;19.67;12.05;;;563.60;2432.00;;;;;;5095703;28;20024;-83
2021/06/29 05:29:42;;;;;;;17.98;12.05;;;563.60;2432.00;;;;;;5094453;28;20024;-84
2021/06/29 05:32:09;;;;;;;21.23;13.55;;;563.60;2432.00;;;;;;5094506;28;20031;-84
2021/06/29 05:34:37;;;;;;;16.73;13.15;;;563.80;2432.00;;;;;;5094188;28;20111;-84
2021/06/29 05:37:03;;;;;;;20.38;14.63;;;563.70;2432.00;;;;;;5093977;28;20051;-84
2021/06/29 05:39:29;;;;;;;17.80;12.15;;;563.90;2432.00;;;;;;5094139;28;20020;-86
2021/06/29 05:41:55;;;;;;;19.95;13.00;;;564.10;2432.00;;;;;;5094103;28;20456;-83
2021/06/29 05:44:20;;;;;;;16.10;11.93;;;564.00;2432.00;;;;;;5094560;28;20026;-83
2021/06/29 05:46:47;;;;;;;17.27;12.57;;;564.10;2432.00;;;;;;5094346;28;20062;-83
2021/06/29 05:49:14;;;;;;;17.65;13.02;;;564.10;2432.00;;;;;;5094045;28;20020;-84
2021/06/29 05:51:47;;;;;;;17.60;11.80;;;588.80;2432.00;;;;;;5094189;28;20020;-83
2021/06/29 05:54:17;;;;;;;15.95;11.65;;;589.00;2432.00;;;;;;5094168;28;20031;-83
2021/06/29 05:56:43;;;;;;;18.13;12.32;;;589.00;2432.00;;;;;;5094179;28;20478;-83
2021/06/29 05:59:10;;;;;;;19.00;12.48;;;589.20;2432.00;;;;;;5095716;28;20077;-83
2021/06/29 06:01:36;;;;;;;17.05;11.68;;;614.50;2432.00;;;;;;5094687;28;20020;-82
2021/06/29 06:04:02;;;;;;;14.23;12.25;;;589.30;2432.00;;;;;;5094115;28;20027;-84
2021/06/29 06:06:27;;;;;;;16.08;12.57;;;589.40;2432.00;;;;;;5094036;28;20016;-84
2021/06/29 06:08:53;;;;;;;17.27;12.48;;;589.50;2432.00;;;;;;5093775;28;20035;-82
2021/06/29 06:11:19;;;;;;;17.20;11.40;;;589.50;2432.00;;;;;;5093777;28;20023;-83
2021/06/29 06:13:46;;;;;;;13.02;11.73;;;589.60;2432.00;;;;;;5093805;28;20020;-84
2021/06/29 06:16:11;;;;;;;14.90;11.18;;;614.40;2432.00;;;;;;5093370;28;20028;-84
2021/06/29 06:18:38;;;;;;;16.48;11.98;;;614.50;2432.00;;;;;;5093694;28;20070;-84
2021/06/29 06:21:05;;;;;;;21.45;13.20;;;614.70;2432.00;;;;;;5093527;28;20031;-84
2021/06/29 06:23:31;;;;;;;18.55;12.15;;;615.10;2432.00;;;;;;5092789;28;20485;-84
2021/06/29 06:25:57;;;;;;;18.77;12.80;;;614.80;2432.00;;;;;;5093723;28;20024;-84
2021/06/29 06:28:23;;;;;;;13.27;11.40;;;614.90;2432.00;;;;;;5093346;28;20019;-83
2021/06/29 06:30:49;;;;;;;16.55;10.77;;;615.10;2432.00;;;;;;5093760;28;20012;-85
2021/06/29 06:33:15;;;;;;;13.13;10.35;;;615.30;2432.00;;;;;;5093134;28;20434;-83
2021/06/29 06:35:40;;;;;;;12.60;10.38;;;615.30;2432.00;;;;;;5093134;28;20097;-84
2021/06/29 06:38:06;;;;;;;13.43;10.63;;;640.20;2432.00;;;;;;5093196;28;20032;-82
2021/06/29 06:40:32;;;;;;;17.63;11.30;;;640.20;2432.00;;;;;;5093314;28;20054;-83
2021/06/29 06:42:58;;;;;;;16.55;10.95;;;640.40;2432.00;;;;;;5093068;28;20024;-84
2021/06/29 06:45:24;;;;;;;13.68;10.60;;;640.70;2432.00;;;;;;5093336;28;20032;-82
2021/06/29 06:47:51;;;;;;;15.05;10.05;;;640.60;2432.00;;;;;;5092876;28;20027;-83
2021/06/29 06:50:17;;;;;;;14.77;10.88;;;640.80;2432.00;;;;;;5093444;28;20016;-84
2021/06/29 06:52:43;;;;;;;15.23;10.77;;;665.60;2432.00;;;;;;5093183;28;20024;-83
2021/06/29 06:55:09;;;;;;;16.42;11.02;;;665.70;2432.00;;;;;;5093218;28;20016;-85
2021/06/29 06:57:35;;;;;;;14.00;9.95;;;666.00;2432.00;;;;;;5093186;28;20073;-83
2021/06/29 07:00:03;;;;;;;15.15;10.23;;;666.20;2432.00;;;;;;5092897;28;20028;-84
2021/06/29 07:02:28;;;;;;;12.65;8.95;;;666.30;2432.00;;;;;;5093051;28;20055;-83
2021/06/29 07:04:54;;;;;;;12.13;9.38;;;666.50;2432.00;;;;;;5093008;28;20371;-84
2021/06/29 07:07:20;;;;;;;11.80;9.70;;;691.20;2432.00;;;;;;5092963;28;20043;-85
2021/06/29 07:09:46;;;;;;;12.77;8.48;;;691.40;2432.00;;;;;;5093032;28;20020;-84
2021/06/29 07:12:12;;;;;;;12.75;9.07;;;691.20;2432.00;;;;;;5092569;28;20114;-84
2021/06/29 07:14:38;;;;;;;11.48;9.25;;;691.30;2432.00;;;;;;5093074;28;20035;-83
2021/06/29 07:17:04;;;;;;;9.13;8.23;;;691.50;2432.00;;;;;;5092770;28;20408;-85
2021/06/29 07:19:30;;;;;;;12.38;8.63;;;691.50;2432.00;;;;;;5093498;28;20019;-84
2021/06/29 07:21:56;;;;;;;11.95;9.40;;;691.70;2432.00;;;;;;5094560;28;20020;-83
2021/06/29 07:24:22;;;;;;;13.48;9.52;;;691.70;2432.00;;;;;;5094541;28;20144;-85
2021/06/29 07:26:48;;;;;;;12.63;8.80;;;692.00;2432.00;;;;;;5093360;28;20043;-85
2021/06/29 07:29:14;;;;;;;11.77;8.77;;;691.90;2432.00;;;;;;5093015;28;20020;-85
2021/06/29 07:31:41;;;;;;;10.93;8.32;;;691.90;2432.00;;;;;;5093237;28;20110;-84
2021/06/29 07:34:07;;;;;;;13.55;8.50;;;691.90;2432.00;;;;;;5092578;28;20020;-81
2021/06/29 07:36:33;;;;;;;10.45;8.85;;;691.90;2432.00;;;;;;5095540;28;20383;-82
2021/06/29 07:38:59;;;;;;;9.88;8.88;;;691.90;2432.00;;;;;;5096835;28;20013;-82
2021/06/29 07:41:25;;;;;;;13.13;8.52;;;691.80;2432.00;;;;;;5096701;28;20455;-84
2021/06/29 07:43:54;;;;;;;10.00;7.88;;;716.80;2432.00;;;;;;5096765;28;20336;-83
2021/06/29 07:46:20;;;;;;;10.73;7.80;;;717.10;2432.00;;;;;;5096984;28;20016;-83
2021/06/29 07:48:46;;;;;;;15.57;7.97;;;717.30;2432.00;;;;;;5096561;28;20023;-83
2021/06/29 07:51:12;;;;;;;12.13;7.80;;;717.40;2432.00;;;;;;5097211;28;20024;-84
2021/06/29 07:53:38;;;;;;;11.07;8.02;;;717.30;2432.00;;;;;;5099742;28;20012;-81
2021/06/29 07:56:05;;;;;;;10.77;7.65;;;717.50;2432.00;;;;;;5110128;28;20028;-82
2021/06/29 07:58:31;;;;;;;9.95;6.93;;;717.70;2432.00;;;;;;5110034;28;20048;-81
2021/06/29 08:00:57;;;;;;;11.50;8.10;;;717.50;2432.00;;;;;;5106997;28;20016;-83
2021/06/29 08:03:23;;;;;;;9.55;8.32;;;717.70;2432.00;;;;;;5095914;28;20016;-82
2021/06/29 08:05:49;;;;;;;12.80;8.00;;;717.70;2432.00;;;;;;5096375;28;20081;-86
2021/06/29 08:08:15;;;;;;;13.57;7.95;;;742.40;2432.00;;;;;;5095748;28;20031;-84
2021/06/29 08:10:41;;;;;;;12.95;7.35;;;742.60;2432.00;;;;;;5096056;28;20023;-84
2021/06/29 08:13:07;;;;;;;8.27;6.72;;;742.60;2432.00;;;;;;5096126;28;20111;-83
2021/06/29 08:15:34;;;;;;;10.35;7.30;;;742.90;2432.00;;;;;;5095776;28;20105;-83
2021/06/29 08:18:00;;;;;;;8.90;7.40;;;743.10;2432.00;;;;;;5095984;28;20028;-85
2021/06/29 08:20:26;;;;;;;10.55;7.15;;;743.10;2432.00;;;;;;5096162;28;20468;-83
2021/06/29 08:22:55;;;;;;;10.88;7.10;;;768.10;2406.40;;;;;;5095720;28;20020;-84
2021/06/29 08:25:21;;;;;;;8.93;7.07;;;743.30;2432.00;;;;;;5096269;28;20069;-83
2021/06/29 08:27:48;;;;;;;11.63;8.70;;;768.30;2406.40;;;;;;5096240;28;20372;-84
2021/06/29 08:30:15;;;;;;;9.27;6.95;;;768.40;2380.80;;;;;;5095689;28;20020;-84
2021/06/29 08:32:41;;;;;;;8.70;7.20;;;768.70;2329.60;;;;;;5096304;28;20027;-86
2021/06/29 08:35:11;;;;;;;8.18;7.30;;;768.90;2380.80;;;;;;5096020;28;20032;-86
2021/06/29 08:37:39;;;;;;;9.27;7.50;;;793.80;2329.60;;;;;;5095423;28;20414;-85
2021/06/29 08:40:08;;;;;;;11.65;10.35;;;794.00;2304.00;;;;;;5097998;28;20072;-84
2021/06/29 08:42:37;;;;;;;11.88;9.35;;;794.20;2278.40;;;;;;5098012;28;20043;-84
2021/06/29 08:45:21;;;;;;;8.88;7.53;;;794.20;2304.00;;;;;;5094640;28;20444;-80
2021/06/29 08:47:48;;;;;;;9.35;7.45;;;794.30;2201.60;;;;;;5094908;28;20053;-81
2021/06/29 08:50:16;;;;;;;9.35;7.25;;;793.70;2201.60;;;;;;5095097;28;20451;-81
2021/06/29 08:52:42;;;;;;;8.35;6.95;;;794.10;2176.00;;;;;;5095123;28;20027;-82
2021/06/29 08:55:09;;;;;;;10.90;6.88;;;794.20;2176.00;;;;;;5094808;28;20026;-79
2021/06/29 08:57:35;;;;;;;8.38;6.82;;;794.30;2124.80;;;;;;5094830;28;20526;-80
2021/06/29 09:00:03;;;;;;;9.07;6.65;;;794.20;2150.40;;;;;;5094741;28;20123;-81
2021/06/29 09:02:29;;;;;;;8.55;6.50;;;794.20;2124.80;;;;;;5095285;28;20020;-79
2021/06/29 09:04:58;;;;;;;10.70;7.63;;;793.60;2124.80;;;;;;5094482;28;20017;-81
2021/06/29 09:07:28;;;;;;;13.45;8.32;;;794.20;2124.80;;;;;;5094493;28;20096;-80
2021/06/29 09:09:59;;;;;;;14.93;8.63;;;794.40;2124.80;;;;;;5094598;28;20020;-79
2021/06/29 09:12:46;;;;;;;12.70;8.00;;;819.60;2150.40;;;;;;5094265;28;20360;-81
2021/06/29 09:15:22;;;;;;;15.93;9.18;;;820.00;2022.40;;;;;;5095549;28;20452;-80
2021/06/29 09:17:49;;;;;;;11.35;6.68;;;820.10;1971.20;;;;;;5094198;28;20119;-80
2021/06/29 09:20:14;;;;;;;11.98;8.13;;;844.90;1945.60;;;;;;5093979;28;20070;-80
2021/06/29 09:22:40;;;;;;;16.10;9.05;;;845.10;1971.20;;;;;;5094278;28;20024;-81
2021/06/29 09:25:29;;;;;;;14.63;9.80;;;845.40;1971.20;;;;;;5092573;28;20034;-81
2021/06/29 09:27:57;;;;;;;9.52;7.63;;;845.60;1945.60;;;;;;5091859;28;20451;-79
2021/06/29 09:30:34;;;;;;;9.15;7.80;;;845.70;1920.00;;;;;;5093073;28;20064;-80
2021/06/29 09:33:16;;;;;;;7.40;6.28;;;870.50;1868.80;;;;;;5093745;28;20030;-79
2021/06/29 09:35:48;;;;;;;10.75;6.38;;;845.70;1817.60;;;;;;5092874;28;20048;-82
2021/06/29 09:38:22;;;;;;;13.45;8.50;;;845.70;1843.20;;;;;;5093024;28;20035;-80
2021/06/29 09:41:01;;;;;;;12.43;9.77;;;845.70;1894.40;;;;;;5092536;28;20027;-79
2021/06/29 09:43:29;;;;;;;10.52;7.50;;;870.60;1868.80;;;;;;5092831;28;20096;-83
2021/06/29 09:45:59;;;;;;;12.07;8.00;;;845.60;1868.80;;;;;;5092804;28;20426;-80
2021/06/29 09:48:43;;;;;;;8.90;7.55;;;870.40;1868.80;;;;;;5093631;28;20051;-79
2021/06/29 09:51:18;;;;;;;10.40;6.55;;;870.80;1843.20;;;;;;5088399;28;20019;-80
2021/06/29 09:53:47;;;;;;;8.23;6.25;;;871.00;1817.60;;;;;;5092631;28;20023;-82
2021/06/29 09:56:18;;;;;;;10.32;6.28;;;871.10;1817.60;;;;;;5092350;28;20077;-79
2021/06/29 09:58:49;;;;;;;8.90;6.50;;;870.70;1817.60;;;;;;5092142;28;20381;-81
2021/06/29 10:01:16;;;;;;;;;;;870.90;1843.20;;;;;;5092904;28;20020;-81
2021/06/29 10:03:43;;;;;;;11.98;7.45;;;871.00;1792.00;;;;;;5092128;28;19947;-80
2021/06/29 10:06:26;;;;;;;14.82;8.25;;;871.30;1843.20;;;;;;5093815;28;20012;-82
2021/06/29 10:08:53;;;;;;;12.45;6.97;;;896.20;1817.60;;;;;;5092535;28;20074;-81
2021/06/29 10:11:23;;;;;;;14.45;6.38;;;896.50;1740.80;;;;;;5094202;28;20026;-81
2021/06/29 10:14:04;;;;;;;13.38;6.28;;;896.70;1766.40;;;;;;5094029;28;20428;-81
2021/06/29 10:16:57;;;;;;;9.65;7.38;;;896.90;1715.20;;;;;;5091179;28;20026;-80
2021/06/29 10:19:47;;;;;;;11.55;7.03;;;896.90;1715.20;;;;;;5093065;28;20111;-80
2021/06/29 10:22:13;;;;;;;10.35;7.07;;;896.90;1689.60;;;;;;5090075;28;20483;-80
2021/06/29 10:24:39;;;;;;;12.13;6.60;;;921.90;1715.20;;;;;;5091585;28;20389;-80
2021/06/29 10:27:08;;;;;;;12.32;6.72;;;922.00;1715.20;;;;;;5090630;28;20028;-82
2021/06/29 10:29:35;;;;;;;10.27;5.20;;;922.10;1715.20;;;;;;5091862;28;20114;-80
2021/06/29 10:32:06;;;;;;;8.50;5.75;;;921.60;1664.00;;;;;;5092134;28;20039;-81
2021/06/29 10:34:34;;;;;;;10.15;5.20;;;921.70;1664.00;;;;;;5104840;28;20019;-80
2021/06/29 10:37:00;;;;;;;8.32;6.63;;;921.70;1664.00;;;;;;5098909;28;20048;-80
2021/06/29 10:39:28;;;;;;;12.80;7.15;;;922.00;1664.00;;;;;;5092034;28;20024;-80
2021/06/29 10:42:07;;;;;;;10.07;5.93;;;922.20;1664.00;;;;;;5090426;28;20020;-81
2021/06/29 10:44:39;;;;;;;14.73;7.20;;;922.30;1664.00;;;;;;5105310;28;20084;-82
2021/06/29 10:47:25;;;;;;;7.32;5.13;;;922.50;1638.40;;;;;;5104823;28;20344;-81
2021/06/29 10:49:54;;;;;;;11.30;7.13;;;922.40;1587.20;;;;;;5090557;28;20763;-82
2021/06/29 10:52:23;;;;;;;7.00;4.90;;;947.20;1612.80;;;;;;5094954;28;20028;-82
2021/06/29 10:54:51;;;;;;;9.10;5.53;;;922.40;1587.20;;;;;;5094516;28;20135;-81
2021/06/29 10:57:48;;;;;;;12.13;6.97;;;947.40;1561.60;;;;;;5097021;28;20527;-81
2021/06/29 11:00:17;;;;;;;11.52;7.50;;;947.50;1536.00;;;;;;5093174;28;20032;-81
2021/06/29 11:03:07;;;;;;;9.25;6.53;;;947.70;1561.60;;;;;;5097362;28;20063;-80
2021/06/29 11:05:44;;;;;;;16.80;7.57;;;947.90;1561.60;;;;;;5120759;28;20023;-79
2021/06/29 11:08:19;;;;;;;9.75;6.32;;;948.10;1561.60;;;;;;5117264;28;20052;-79
2021/06/29 11:10:48;;;;;;;10.85;8.20;;;948.10;1536.00;;;;;;5120646;28;20023;-79
2021/06/29 11:13:16;;;;;;;9.45;7.90;;;972.90;1587.20;;;;;;5111359;28;20031;-80
2021/06/29 11:15:51;;;;;;;8.00;6.55;;;973.00;1561.60;;;;;;5102738;28;20024;-81
2021/06/29 11:18:39;;;;;;;8.38;6.15;;;973.10;1536.00;;;;;;5105231;28;20482;-80
2021/06/29 11:21:06;;;;;;;10.02;6.25;;;972.90;1510.40;;;;;;5107636;28;20069;-81
2021/06/29 11:23:33;;;;;;;11.50;6.38;;;973.20;1561.60;;;;;;5112219;28;20034;-82
2021/06/29 11:26:01;;;;;;;19.00;8.40;;;973.50;1536.00;;;;;;5118829;28;20023;-82
2021/06/29 11:28:35;;;;;;;14.85;6.53;;;973.20;1561.60;;;;;;5110337;28;20020;-80
2021/06/29 11:31:12;;;;;;;17.65;6.97;;;973.50;1536.00;;;;;;5109823;28;20425;-80
2021/06/29 11:33:50;;;;;;;12.38;7.40;;;973.50;1459.20;;;;;;5096548;28;20390;-80
2021/06/29 11:36:25;;;;;;;15.30;13.48;;;973.60;1459.20;;;;;;5095071;28;20044;-82
2021/06/29 11:38:54;;;;;;;11.80;7.65;;;973.70;1433.60;;;;;;5076854;28;20032;-79
2021/06/29 11:41:31;;;;;;;10.85;7.30;;;998.40;1459.20;;;;;;5096447;28;20024;-81
2021/06/29 11:44:06;;;;;;;16.92;7.13;;;973.70;1484.80;;;;;;5097219;28;20016;-81
2021/06/29 11:46:50;;;;;;;7.15;4.97;;;998.40;1459.20;;;;;;5097654;28;20016;-81
2021/06/29 11:49:49;;;;;;;10.70;5.45;;;973.70;1408.00;;;;;;5097275;28;20362;-81
2021/06/29 11:52:16;;;;;;;11.65;6.18;;;998.40;1433.60;;;;;;5082394;28;20058;-84
2021/06/29 11:54:58;;;;;;;14.32;8.55;;;973.70;1408.00;;;;;;5096692;28;20107;-82
2021/06/29 11:57:41;;;;;;;12.85;8.48;;;973.70;1408.00;;;;;;5096412;28;20024;-82
2021/06/29 12:00:27;;;;;;;12.10;6.53;;;998.50;1459.20;;;;;;5098091;28;20051;-82
2021/06/29 12:02:56;;;;;;;13.20;7.35;;;998.60;1459.20;;;;;;5095918;28;20056;-81
2021/06/29 12:05:28;;;;;;;8.10;6.05;;;998.80;1433.60;;;;;;5096143;28;20463;-82
2021/06/29 12:07:56;;;;;;;9.05;5.72;;;998.80;1433.60;;;;;;5097139;28;20460;-80
2021/06/29 12:10:39;;;;;;;10.60;4.50;;;998.90;1382.40;;;;;;5097094;28;20363;-81
2021/06/29 12:13:10;;;;;;;13.07;4.90;;;998.90;1331.20;;;;;;5095752;28;20016;-79
2021/06/29 12:15:42;;;;;;;10.68;4.90;;;998.90;1331.20;;;;;;5095899;28;20023;-80
2021/06/29 12:18:11;;;;;;;9.35;4.78;;;998.80;1331.20;;;;;;5095789;28;20039;-79
2021/06/29 12:20:50;;;;;;;9.15;4.07;;;998.60;1331.20;;;;;;5095289;28;20479;-81